sensor_id;sensor_type;location;lat;lon;timestamp;P1;durP1;ratioP1;P2;durP2;ratioP2
9102;SDS011;4587;51.434;6.788;2022-12-08T00:01:24;15.40;;;13.63;;
9102;SDS011;4587;51.434;6.788;2022-12-08T00:03:52;17.13;;;13.53;;
9102;SDS011;4587;51.434;6.788;2022-12-08T00:09:15;14.27;;;12.77;;
9102;SDS011;4587;51.434;6.788;2022-12-08T00:11:45;15.07;;;12.07;;
9102;SDS011;4587;51.434;6.788;2022-12-08T00:14:12;14.13;;;12.63;;
9102;SDS011;4587;51.434;6.788;2022-12-08T00:16:37;16.23;;;12.27;;
9102;SDS011;4587;51.434;6.788;2022-12-08T00:19:03;16.50;;;11.93;;
9102;SDS011;4587;51.434;6.788;2022-12-08T00:21:28;13.93;;;12.40;;
9102;SDS011;4587;51.434;6.788;2022-12-08T00:23:54;14.17;;;11.27;;
9102;SDS011;4587;51.434;6.788;2022-12-08T00:26:20;12.80;;;11.50;;
9102;SDS011;4587;51.434;6.788;2022-12-08T00:28:46;13.43;;;12.03;;
9102;SDS011;4587;51.434;6.788;2022-12-08T00:31:12;12.20;;;10.70;;
9102;SDS011;4587;51.434;6.788;2022-12-08T00:33:38;12.73;;;11.07;;
9102;SDS011;4587;51.434;6.788;2022-12-08T00:36:07;12.27;;;10.90;;
9102;SDS011;4587;51.434;6.788;2022-12-08T00:38:34;15.30;;;10.40;;
9102;SDS011;4587;51.434;6.788;2022-12-08T00:41:00;14.97;;;11.07;;
9102;SDS011;4587;51.434;6.788;2022-12-08T00:43:27;12.50;;;10.47;;
9102;SDS011;4587;51.434;6.788;2022-12-08T00:45:52;13.23;;;10.53;;
9102;SDS011;4587;51.434;6.788;2022-12-08T00:48:18;13.20;;;11.50;;
9102;SDS011;4587;51.434;6.788;2022-12-08T00:50:43;12.73;;;10.17;;
9102;SDS011;4587;51.434;6.788;2022-12-08T00:53:09;14.27;;;10.63;;
9102;SDS011;4587;51.434;6.788;2022-12-08T00:55:35;12.87;;;10.90;;
9102;SDS011;4587;51.434;6.788;2022-12-08T00:58:00;13.87;;;11.57;;
9102;SDS011;4587;51.434;6.788;2022-12-08T01:00:26;15.13;;;11.63;;
9102;SDS011;4587;51.434;6.788;2022-12-08T01:02:51;16.13;;;11.63;;
9102;SDS011;4587;51.434;6.788;2022-12-08T01:05:17;14.03;;;12.07;;
9102;SDS011;4587;51.434;6.788;2022-12-08T01:07:42;12.67;;;11.37;;
9102;SDS011;4587;51.434;6.788;2022-12-08T01:10:08;13.30;;;11.90;;
9102;SDS011;4587;51.434;6.788;2022-12-08T01:12:34;14.10;;;12.70;;
9102;SDS011;4587;51.434;6.788;2022-12-08T01:14:59;15.17;;;11.93;;
9102;SDS011;4587;51.434;6.788;2022-12-08T01:17:25;15.57;;;12.90;;
9102;SDS011;4587;51.434;6.788;2022-12-08T01:19:50;14.90;;;13.33;;
9102;SDS011;4587;51.434;6.788;2022-12-08T01:22:16;14.77;;;12.73;;
9102;SDS011;4587;51.434;6.788;2022-12-08T01:24:41;14.53;;;13.03;;
9102;SDS011;4587;51.434;6.788;2022-12-08T01:27:07;15.90;;;14.10;;
9102;SDS011;4587;51.434;6.788;2022-12-08T01:29:32;16.23;;;14.33;;
9102;SDS011;4587;51.434;6.788;2022-12-08T01:31:58;16.27;;;14.57;;
9102;SDS011;4587;51.434;6.788;2022-12-08T01:34:24;18.37;;;15.10;;
9102;SDS011;4587;51.434;6.788;2022-12-08T01:36:49;18.30;;;16.47;;
9102;SDS011;4587;51.434;6.788;2022-12-08T01:39:16;19.10;;;16.60;;
9102;SDS011;4587;51.434;6.788;2022-12-08T01:41:42;22.87;;;17.47;;
9102;SDS011;4587;51.434;6.788;2022-12-08T01:46:38;19.63;;;17.63;;
9102;SDS011;4587;51.434;6.788;2022-12-08T01:51:36;23.13;;;18.50;;
9102;SDS011;4587;51.434;6.788;2022-12-08T01:54:06;21.60;;;19.07;;
9102;SDS011;4587;51.434;6.788;2022-12-08T01:59:22;23.67;;;20.73;;
9102;SDS011;4587;51.434;6.788;2022-12-08T02:01:49;26.53;;;20.30;;
9102;SDS011;4587;51.434;6.788;2022-12-08T02:04:15;23.33;;;20.23;;
9102;SDS011;4587;51.434;6.788;2022-12-08T02:06:42;23.07;;;20.67;;
9102;SDS011;4587;51.434;6.788;2022-12-08T02:09:09;25.17;;;22.43;;
9102;SDS011;4587;51.434;6.788;2022-12-08T02:11:35;25.90;;;22.37;;
9102;SDS011;4587;51.434;6.788;2022-12-08T02:14:00;27.33;;;22.57;;
9102;SDS011;4587;51.434;6.788;2022-12-08T02:16:41;27.30;;;23.20;;
9102;SDS011;4587;51.434;6.788;2022-12-08T02:22:07;27.07;;;23.27;;
9102;SDS011;4587;51.434;6.788;2022-12-08T02:30:06;27.10;;;23.80;;
9102;SDS011;4587;51.434;6.788;2022-12-08T02:41:19;27.50;;;24.03;;
9102;SDS011;4587;51.434;6.788;2022-12-08T02:44:10;28.87;;;24.40;;
9102;SDS011;4587;51.434;6.788;2022-12-08T02:47:01;27.73;;;24.10;;
9102;SDS011;4587;51.434;6.788;2022-12-08T02:49:31;26.93;;;24.03;;
9102;SDS011;4587;51.434;6.788;2022-12-08T02:54:35;28.33;;;25.20;;
9102;SDS011;4587;51.434;6.788;2022-12-08T03:00:07;28.57;;;24.43;;
9102;SDS011;4587;51.434;6.788;2022-12-08T03:05:24;28.57;;;25.13;;
9102;SDS011;4587;51.434;6.788;2022-12-08T03:08:05;28.40;;;25.30;;
9102;SDS011;4587;51.434;6.788;2022-12-08T03:10:57;27.67;;;23.00;;
9102;SDS011;4587;51.434;6.788;2022-12-08T03:13:45;26.10;;;22.33;;
9102;SDS011;4587;51.434;6.788;2022-12-08T03:16:14;27.57;;;23.37;;
9102;SDS011;4587;51.434;6.788;2022-12-08T03:18:44;25.63;;;22.73;;
9102;SDS011;4587;51.434;6.788;2022-12-08T03:21:14;26.30;;;22.80;;
9102;SDS011;4587;51.434;6.788;2022-12-08T03:23:43;24.77;;;22.20;;
9102;SDS011;4587;51.434;6.788;2022-12-08T03:26:12;27.23;;;22.33;;
9102;SDS011;4587;51.434;6.788;2022-12-08T03:28:43;25.80;;;21.87;;
9102;SDS011;4587;51.434;6.788;2022-12-08T03:31:11;25.93;;;23.23;;
9102;SDS011;4587;51.434;6.788;2022-12-08T03:33:39;25.03;;;22.33;;
9102;SDS011;4587;51.434;6.788;2022-12-08T03:36:07;24.93;;;22.23;;
9102;SDS011;4587;51.434;6.788;2022-12-08T03:38:38;25.33;;;22.63;;
9102;SDS011;4587;51.434;6.788;2022-12-08T03:41:06;24.63;;;21.63;;
9102;SDS011;4587;51.434;6.788;2022-12-08T03:43:51;25.40;;;20.50;;
9102;SDS011;4587;51.434;6.788;2022-12-08T03:46:18;26.17;;;21.97;;
9102;SDS011;4587;51.434;6.788;2022-12-08T03:48:45;26.40;;;22.77;;
9102;SDS011;4587;51.434;6.788;2022-12-08T03:51:11;25.00;;;22.27;;
9102;SDS011;4587;51.434;6.788;2022-12-08T03:53:37;24.40;;;21.80;;
9102;SDS011;4587;51.434;6.788;2022-12-08T03:56:03;24.60;;;21.73;;
9102;SDS011;4587;51.434;6.788;2022-12-08T03:58:30;24.80;;;21.27;;
9102;SDS011;4587;51.434;6.788;2022-12-08T04:00:55;23.83;;;21.33;;
9102;SDS011;4587;51.434;6.788;2022-12-08T04:03:21;23.50;;;20.80;;
9102;SDS011;4587;51.434;6.788;2022-12-08T04:05:46;23.37;;;19.87;;
9102;SDS011;4587;51.434;6.788;2022-12-08T04:08:12;23.77;;;20.43;;
9102;SDS011;4587;51.434;6.788;2022-12-08T04:10:38;24.50;;;20.63;;
9102;SDS011;4587;51.434;6.788;2022-12-08T04:13:03;23.77;;;21.27;;
9102;SDS011;4587;51.434;6.788;2022-12-08T04:15:29;22.80;;;20.30;;
9102;SDS011;4587;51.434;6.788;2022-12-08T04:17:54;21.83;;;19.53;;
9102;SDS011;4587;51.434;6.788;2022-12-08T04:20:20;22.10;;;19.73;;
9102;SDS011;4587;51.434;6.788;2022-12-08T04:22:45;21.80;;;19.50;;
9102;SDS011;4587;51.434;6.788;2022-12-08T04:25:11;23.13;;;19.67;;
9102;SDS011;4587;51.434;6.788;2022-12-08T04:27:36;21.17;;;19.00;;
9102;SDS011;4587;51.434;6.788;2022-12-08T04:30:02;19.97;;;17.97;;
9102;SDS011;4587;51.434;6.788;2022-12-08T04:32:28;20.27;;;18.10;;
9102;SDS011;4587;51.434;6.788;2022-12-08T04:34:53;19.37;;;17.47;;
9102;SDS011;4587;51.434;6.788;2022-12-08T04:37:19;20.23;;;18.17;;
9102;SDS011;4587;51.434;6.788;2022-12-08T04:39:44;20.20;;;18.10;;
9102;SDS011;4587;51.434;6.788;2022-12-08T04:42:10;21.33;;;19.00;;
9102;SDS011;4587;51.434;6.788;2022-12-08T04:44:35;19.90;;;17.67;;
9102;SDS011;4587;51.434;6.788;2022-12-08T04:47:01;19.53;;;17.50;;
9102;SDS011;4587;51.434;6.788;2022-12-08T04:49:26;18.87;;;16.87;;
9102;SDS011;4587;51.434;6.788;2022-12-08T04:51:52;19.63;;;17.47;;
9102;SDS011;4587;51.434;6.788;2022-12-08T04:54:17;19.60;;;17.50;;
9102;SDS011;4587;51.434;6.788;2022-12-08T04:56:43;18.83;;;17.03;;
9102;SDS011;4587;51.434;6.788;2022-12-08T04:59:08;17.83;;;16.03;;
9102;SDS011;4587;51.434;6.788;2022-12-08T05:01:34;17.90;;;16.07;;
9102;SDS011;4587;51.434;6.788;2022-12-08T05:03:59;18.47;;;16.57;;
9102;SDS011;4587;51.434;6.788;2022-12-08T05:06:25;18.13;;;16.27;;
9102;SDS011;4587;51.434;6.788;2022-12-08T05:08:50;18.87;;;16.87;;
9102;SDS011;4587;51.434;6.788;2022-12-08T05:11:16;18.33;;;16.60;;
9102;SDS011;4587;51.434;6.788;2022-12-08T05:13:42;18.00;;;16.27;;
9102;SDS011;4587;51.434;6.788;2022-12-08T05:16:09;17.80;;;16.00;;
9102;SDS011;4587;51.434;6.788;2022-12-08T05:18:36;18.23;;;16.43;;
9102;SDS011;4587;51.434;6.788;2022-12-08T05:21:03;18.73;;;16.93;;
9102;SDS011;4587;51.434;6.788;2022-12-08T05:23:29;18.53;;;16.63;;
9102;SDS011;4587;51.434;6.788;2022-12-08T05:25:55;18.30;;;16.40;;
9102;SDS011;4587;51.434;6.788;2022-12-08T05:28:20;18.17;;;16.37;;
9102;SDS011;4587;51.434;6.788;2022-12-08T05:30:46;18.00;;;16.30;;
9102;SDS011;4587;51.434;6.788;2022-12-08T05:33:12;18.43;;;16.37;;
9102;SDS011;4587;51.434;6.788;2022-12-08T05:35:38;20.17;;;16.83;;
9102;SDS011;4587;51.434;6.788;2022-12-08T05:38:04;17.63;;;15.83;;
9102;SDS011;4587;51.434;6.788;2022-12-08T05:40:30;18.33;;;16.53;;
9102;SDS011;4587;51.434;6.788;2022-12-08T05:42:56;18.43;;;16.53;;
9102;SDS011;4587;51.434;6.788;2022-12-08T05:45:21;18.83;;;16.87;;
9102;SDS011;4587;51.434;6.788;2022-12-08T05:47:47;18.87;;;16.97;;
9102;SDS011;4587;51.434;6.788;2022-12-08T05:50:12;18.80;;;16.80;;
9102;SDS011;4587;51.434;6.788;2022-12-08T05:52:38;18.80;;;16.93;;
9102;SDS011;4587;51.434;6.788;2022-12-08T05:55:03;18.43;;;16.63;;
9102;SDS011;4587;51.434;6.788;2022-12-08T05:57:29;19.50;;;16.37;;
9102;SDS011;4587;51.434;6.788;2022-12-08T05:59:55;18.87;;;16.97;;
9102;SDS011;4587;51.434;6.788;2022-12-08T06:02:23;18.43;;;16.53;;
9102;SDS011;4587;51.434;6.788;2022-12-08T06:04:49;18.10;;;16.37;;
9102;SDS011;4587;51.434;6.788;2022-12-08T06:07:15;19.53;;;17.53;;
9102;SDS011;4587;51.434;6.788;2022-12-08T06:09:40;19.13;;;16.90;;
9102;SDS011;4587;51.434;6.788;2022-12-08T06:12:06;20.07;;;17.97;;
9102;SDS011;4587;51.434;6.788;2022-12-08T06:14:31;19.33;;;17.27;;
9102;SDS011;4587;51.434;6.788;2022-12-08T06:16:57;20.23;;;18.03;;
9102;SDS011;4587;51.434;6.788;2022-12-08T06:19:22;20.67;;;18.50;;
9102;SDS011;4587;51.434;6.788;2022-12-08T06:21:48;20.00;;;18.00;;
9102;SDS011;4587;51.434;6.788;2022-12-08T06:24:14;21.10;;;17.93;;
9102;SDS011;4587;51.434;6.788;2022-12-08T06:26:39;20.50;;;18.37;;
9102;SDS011;4587;51.434;6.788;2022-12-08T06:29:05;19.73;;;17.77;;
9102;SDS011;4587;51.434;6.788;2022-12-08T06:31:31;22.00;;;19.53;;
9102;SDS011;4587;51.434;6.788;2022-12-08T06:33:57;21.40;;;18.93;;
9102;SDS011;4587;51.434;6.788;2022-12-08T06:36:23;21.43;;;19.17;;
9102;SDS011;4587;51.434;6.788;2022-12-08T06:38:51;21.93;;;19.50;;
9102;SDS011;4587;51.434;6.788;2022-12-08T06:41:17;20.83;;;18.20;;
9102;SDS011;4587;51.434;6.788;2022-12-08T06:43:43;23.17;;;18.30;;
9102;SDS011;4587;51.434;6.788;2022-12-08T06:46:10;19.77;;;17.53;;
9102;SDS011;4587;51.434;6.788;2022-12-08T06:48:37;19.63;;;17.57;;
9102;SDS011;4587;51.434;6.788;2022-12-08T06:51:10;19.77;;;17.67;;
9102;SDS011;4587;51.434;6.788;2022-12-08T06:53:38;20.03;;;17.10;;
9102;SDS011;4587;51.434;6.788;2022-12-08T06:56:05;21.53;;;18.50;;
9102;SDS011;4587;51.434;6.788;2022-12-08T06:58:31;19.67;;;17.57;;
9102;SDS011;4587;51.434;6.788;2022-12-08T07:01:01;20.87;;;17.73;;
9102;SDS011;4587;51.434;6.788;2022-12-08T07:03:28;20.03;;;17.83;;
9102;SDS011;4587;51.434;6.788;2022-12-08T07:05:54;19.77;;;17.70;;
9102;SDS011;4587;51.434;6.788;2022-12-08T07:08:21;19.17;;;17.03;;
9102;SDS011;4587;51.434;6.788;2022-12-08T07:10:47;20.27;;;18.07;;
9102;SDS011;4587;51.434;6.788;2022-12-08T07:13:13;19.53;;;17.40;;
9102;SDS011;4587;51.434;6.788;2022-12-08T07:15:38;19.60;;;17.60;;
9102;SDS011;4587;51.434;6.788;2022-12-08T07:18:04;20.00;;;16.47;;
9102;SDS011;4587;51.434;6.788;2022-12-08T07:20:29;18.60;;;16.70;;
9102;SDS011;4587;51.434;6.788;2022-12-08T07:22:55;17.50;;;15.47;;
9102;SDS011;4587;51.434;6.788;2022-12-08T07:25:20;18.13;;;16.03;;
9102;SDS011;4587;51.434;6.788;2022-12-08T07:27:46;19.33;;;15.70;;
9102;SDS011;4587;51.434;6.788;2022-12-08T07:30:14;17.37;;;15.57;;
9102;SDS011;4587;51.434;6.788;2022-12-08T07:32:39;16.13;;;14.50;;
9102;SDS011;4587;51.434;6.788;2022-12-08T07:35:05;16.37;;;14.60;;
9102;SDS011;4587;51.434;6.788;2022-12-08T07:37:32;16.73;;;15.03;;
9102;SDS011;4587;51.434;6.788;2022-12-08T07:39:59;16.03;;;14.33;;
9102;SDS011;4587;51.434;6.788;2022-12-08T07:42:24;15.03;;;13.53;;
9102;SDS011;4587;51.434;6.788;2022-12-08T07:44:50;13.73;;;12.33;;
9102;SDS011;4587;51.434;6.788;2022-12-08T07:47:16;14.50;;;12.93;;
9102;SDS011;4587;51.434;6.788;2022-12-08T07:49:41;13.50;;;12.10;;
9102;SDS011;4587;51.434;6.788;2022-12-08T07:52:07;12.90;;;11.60;;
9102;SDS011;4587;51.434;6.788;2022-12-08T07:54:32;12.53;;;11.23;;
9102;SDS011;4587;51.434;6.788;2022-12-08T07:56:58;12.23;;;11.03;;
9102;SDS011;4587;51.434;6.788;2022-12-08T07:59:23;13.07;;;11.70;;
9102;SDS011;4587;51.434;6.788;2022-12-08T08:01:49;12.17;;;11.00;;
9102;SDS011;4587;51.434;6.788;2022-12-08T08:04:15;11.87;;;10.57;;
9102;SDS011;4587;51.434;6.788;2022-12-08T08:06:41;12.27;;;11.07;;
9102;SDS011;4587;51.434;6.788;2022-12-08T08:09:06;12.40;;;11.10;;
9102;SDS011;4587;51.434;6.788;2022-12-08T08:11:33;11.90;;;10.70;;
9102;SDS011;4587;51.434;6.788;2022-12-08T08:13:59;12.20;;;10.90;;
9102;SDS011;4587;51.434;6.788;2022-12-08T08:16:24;12.40;;;11.17;;
9102;SDS011;4587;51.434;6.788;2022-12-08T08:18:50;12.23;;;10.97;;
9102;SDS011;4587;51.434;6.788;2022-12-08T08:21:17;13.57;;;11.30;;
9102;SDS011;4587;51.434;6.788;2022-12-08T08:23:43;12.13;;;10.93;;
9102;SDS011;4587;51.434;6.788;2022-12-08T08:26:09;12.03;;;10.83;;
9102;SDS011;4587;51.434;6.788;2022-12-08T08:28:34;10.60;;;9.53;;
9102;SDS011;4587;51.434;6.788;2022-12-08T08:31:01;11.07;;;9.97;;
9102;SDS011;4587;51.434;6.788;2022-12-08T08:33:26;12.53;;;11.23;;
9102;SDS011;4587;51.434;6.788;2022-12-08T08:35:53;12.43;;;10.90;;
9102;SDS011;4587;51.434;6.788;2022-12-08T08:38:18;11.87;;;10.67;;
9102;SDS011;4587;51.434;6.788;2022-12-08T08:40:44;11.33;;;10.10;;
9102;SDS011;4587;51.434;6.788;2022-12-08T08:43:10;11.83;;;10.63;;
9102;SDS011;4587;51.434;6.788;2022-12-08T08:45:56;11.50;;;10.40;;
9102;SDS011;4587;51.434;6.788;2022-12-08T08:48:23;12.80;;;11.33;;
9102;SDS011;4587;51.434;6.788;2022-12-08T08:50:49;12.60;;;11.30;;
9102;SDS011;4587;51.434;6.788;2022-12-08T08:53:14;13.37;;;11.97;;
9102;SDS011;4587;51.434;6.788;2022-12-08T08:55:40;14.30;;;11.87;;
9102;SDS011;4587;51.434;6.788;2022-12-08T08:58:05;13.93;;;12.47;;
9102;SDS011;4587;51.434;6.788;2022-12-08T09:00:31;13.60;;;12.27;;
9102;SDS011;4587;51.434;6.788;2022-12-08T09:02:56;15.50;;;13.90;;
9102;SDS011;4587;51.434;6.788;2022-12-08T09:05:22;15.37;;;13.77;;
9102;SDS011;4587;51.434;6.788;2022-12-08T09:07:48;16.20;;;14.50;;
9102;SDS011;4587;51.434;6.788;2022-12-08T09:10:13;16.37;;;14.67;;
9102;SDS011;4587;51.434;6.788;2022-12-08T09:12:39;17.47;;;15.67;;
9102;SDS011;4587;51.434;6.788;2022-12-08T09:15:04;19.03;;;16.27;;
9102;SDS011;4587;51.434;6.788;2022-12-08T09:17:30;18.00;;;16.20;;
9102;SDS011;4587;51.434;6.788;2022-12-08T09:19:56;19.93;;;17.73;;
9102;SDS011;4587;51.434;6.788;2022-12-08T09:22:21;19.60;;;17.60;;
9102;SDS011;4587;51.434;6.788;2022-12-08T09:24:47;20.70;;;17.43;;
9102;SDS011;4587;51.434;6.788;2022-12-08T09:27:13;20.70;;;18.50;;
9102;SDS011;4587;51.434;6.788;2022-12-08T09:29:38;22.00;;;18.97;;
9102;SDS011;4587;51.434;6.788;2022-12-08T09:32:04;21.23;;;18.83;;
9102;SDS011;4587;51.434;6.788;2022-12-08T09:34:30;22.50;;;19.33;;
9102;SDS011;4587;51.434;6.788;2022-12-08T09:36:55;21.10;;;18.83;;
9102;SDS011;4587;51.434;6.788;2022-12-08T09:39:21;23.87;;;19.67;;
9102;SDS011;4587;51.434;6.788;2022-12-08T09:41:51;22.67;;;19.53;;
9102;SDS011;4587;51.434;6.788;2022-12-08T09:47:17;23.53;;;18.70;;
9102;SDS011;4587;51.434;6.788;2022-12-08T09:50:06;21.13;;;18.40;;
9102;SDS011;4587;51.434;6.788;2022-12-08T09:52:45;19.77;;;17.77;;
9102;SDS011;4587;51.434;6.788;2022-12-08T09:55:19;18.83;;;16.83;;
9102;SDS011;4587;51.434;6.788;2022-12-08T09:57:50;18.50;;;16.13;;
9102;SDS011;4587;51.434;6.788;2022-12-08T10:00:25;18.17;;;16.27;;
9102;SDS011;4587;51.434;6.788;2022-12-08T10:02:50;18.03;;;15.73;;
9102;SDS011;4587;51.434;6.788;2022-12-08T10:05:16;19.47;;;16.43;;
9102;SDS011;4587;51.434;6.788;2022-12-08T10:10:38;18.93;;;16.57;;
9102;SDS011;4587;51.434;6.788;2022-12-08T10:19:10;17.23;;;15.37;;
9102;SDS011;4587;51.434;6.788;2022-12-08T10:21:40;15.90;;;14.30;;
9102;SDS011;4587;51.434;6.788;2022-12-08T10:24:10;16.63;;;15.00;;
9102;SDS011;4587;51.434;6.788;2022-12-08T10:27:01;16.87;;;15.07;;
9102;SDS011;4587;51.434;6.788;2022-12-08T10:29:27;16.57;;;14.87;;
9102;SDS011;4587;51.434;6.788;2022-12-08T10:31:52;17.03;;;15.33;;
9102;SDS011;4587;51.434;6.788;2022-12-08T10:34:22;19.40;;;16.47;;
9102;SDS011;4587;51.434;6.788;2022-12-08T10:39:31;19.70;;;16.73;;
9102;SDS011;4587;51.434;6.788;2022-12-08T10:42:01;20.03;;;17.30;;
9102;SDS011;4587;51.434;6.788;2022-12-08T10:47:21;19.50;;;17.57;;
9102;SDS011;4587;51.434;6.788;2022-12-08T10:50:04;18.57;;;16.70;;
9102;SDS011;4587;51.434;6.788;2022-12-08T10:52:36;20.43;;;17.30;;
9102;SDS011;4587;51.434;6.788;2022-12-08T10:55:03;21.37;;;18.17;;
9102;SDS011;4587;51.434;6.788;2022-12-08T10:57:37;20.03;;;18.00;;
9102;SDS011;4587;51.434;6.788;2022-12-08T11:00:03;21.07;;;18.27;;
9102;SDS011;4587;51.434;6.788;2022-12-08T11:02:29;21.57;;;19.40;;
9102;SDS011;4587;51.434;6.788;2022-12-08T11:04:55;21.57;;;19.37;;
9102;SDS011;4587;51.434;6.788;2022-12-08T11:07:25;22.77;;;19.70;;
9102;SDS011;4587;51.434;6.788;2022-12-08T11:09:54;22.43;;;19.80;;
9102;SDS011;4587;51.434;6.788;2022-12-08T11:12:22;23.50;;;20.53;;
9102;SDS011;4587;51.434;6.788;2022-12-08T11:14:55;25.13;;;19.80;;
9102;SDS011;4587;51.434;6.788;2022-12-08T11:17:26;23.07;;;20.07;;
9102;SDS011;4587;51.434;6.788;2022-12-08T11:22:34;26.33;;;19.33;;
9102;SDS011;4587;51.434;6.788;2022-12-08T11:27:35;23.87;;;21.33;;
9102;SDS011;4587;51.434;6.788;2022-12-08T11:30:05;24.07;;;20.17;;
9102;SDS011;4587;51.434;6.788;2022-12-08T11:32:41;26.50;;;20.60;;
9102;SDS011;4587;51.434;6.788;2022-12-08T11:35:19;24.77;;;21.13;;
9102;SDS011;4587;51.434;6.788;2022-12-08T11:37:50;24.20;;;20.03;;
9102;SDS011;4587;51.434;6.788;2022-12-08T11:40:20;24.17;;;20.93;;
9102;SDS011;4587;51.434;6.788;2022-12-08T11:42:53;24.37;;;21.33;;
9102;SDS011;4587;51.434;6.788;2022-12-08T11:45:37;24.80;;;20.83;;
9102;SDS011;4587;51.434;6.788;2022-12-08T11:48:17;24.53;;;20.13;;
9102;SDS011;4587;51.434;6.788;2022-12-08T11:51:01;22.73;;;19.47;;
9102;SDS011;4587;51.434;6.788;2022-12-08T11:56:25;21.17;;;18.87;;
9102;SDS011;4587;51.434;6.788;2022-12-08T11:58:56;20.37;;;17.33;;
9102;SDS011;4587;51.434;6.788;2022-12-08T12:01:25;18.83;;;16.83;;
9102;SDS011;4587;51.434;6.788;2022-12-08T12:03:53;18.33;;;15.63;;
9102;SDS011;4587;51.434;6.788;2022-12-08T12:09:39;19.90;;;16.27;;
9102;SDS011;4587;51.434;6.788;2022-12-08T12:12:34;16.67;;;14.27;;
9102;SDS011;4587;51.434;6.788;2022-12-08T12:18:42;12.87;;;11.57;;
9102;SDS011;4587;51.434;6.788;2022-12-08T12:23:51;13.07;;;11.13;;
9102;SDS011;4587;51.434;6.788;2022-12-08T12:26:19;12.43;;;11.23;;
9102;SDS011;4587;51.434;6.788;2022-12-08T12:28:49;14.13;;;11.47;;
9102;SDS011;4587;51.434;6.788;2022-12-08T12:31:17;12.57;;;11.07;;
9102;SDS011;4587;51.434;6.788;2022-12-08T12:33:46;12.70;;;11.43;;
9102;SDS011;4587;51.434;6.788;2022-12-08T12:36:14;12.27;;;10.97;;
9102;SDS011;4587;51.434;6.788;2022-12-08T12:38:46;12.07;;;10.97;;
9102;SDS011;4587;51.434;6.788;2022-12-08T12:41:43;12.20;;;11.00;;
9102;SDS011;4587;51.434;6.788;2022-12-08T12:44:21;12.40;;;11.20;;
9102;SDS011;4587;51.434;6.788;2022-12-08T12:47:00;12.23;;;11.10;;
9102;SDS011;4587;51.434;6.788;2022-12-08T12:52:03;12.97;;;11.77;;
9102;SDS011;4587;51.434;6.788;2022-12-08T12:54:29;12.83;;;11.63;;
9102;SDS011;4587;51.434;6.788;2022-12-08T12:59:41;13.57;;;12.27;;
9102;SDS011;4587;51.434;6.788;2022-12-08T13:02:22;13.13;;;11.87;;
9102;SDS011;4587;51.434;6.788;2022-12-08T13:04:53;14.37;;;13.00;;
9102;SDS011;4587;51.434;6.788;2022-12-08T13:07:20;13.70;;;12.40;;
9102;SDS011;4587;51.434;6.788;2022-12-08T13:09:53;14.67;;;13.27;;
9102;SDS011;4587;51.434;6.788;2022-12-08T13:12:22;15.90;;;14.30;;
9102;SDS011;4587;51.434;6.788;2022-12-08T13:14:49;14.97;;;13.53;;
9102;SDS011;4587;51.434;6.788;2022-12-08T13:17:50;15.93;;;14.20;;
9102;SDS011;4587;51.434;6.788;2022-12-08T13:20:18;16.30;;;14.70;;
9102;SDS011;4587;51.434;6.788;2022-12-08T13:33:10;18.13;;;16.23;;
9102;SDS011;4587;51.434;6.788;2022-12-08T13:35:41;19.13;;;17.13;;
9102;SDS011;4587;51.434;6.788;2022-12-08T13:38:14;18.80;;;16.90;;
9102;SDS011;4587;51.434;6.788;2022-12-08T13:40:42;16.33;;;14.73;;
9102;SDS011;4587;51.434;6.788;2022-12-08T13:46:14;16.00;;;14.40;;
9102;SDS011;4587;51.434;6.788;2022-12-08T13:48:53;15.30;;;13.77;;
9102;SDS011;4587;51.434;6.788;2022-12-08T13:51:22;15.20;;;13.70;;
9102;SDS011;4587;51.434;6.788;2022-12-08T13:56:26;14.63;;;13.13;;
9102;SDS011;4587;51.434;6.788;2022-12-08T13:59:05;15.50;;;13.90;;
9102;SDS011;4587;51.434;6.788;2022-12-08T14:01:32;14.77;;;13.33;;
9102;SDS011;4587;51.434;6.788;2022-12-08T14:04:04;15.50;;;14.00;;
9102;SDS011;4587;51.434;6.788;2022-12-08T14:06:34;15.73;;;14.03;;
9102;SDS011;4587;51.434;6.788;2022-12-08T14:09:03;15.17;;;13.57;;
9102;SDS011;4587;51.434;6.788;2022-12-08T14:11:35;17.13;;;13.13;;
9102;SDS011;4587;51.434;6.788;2022-12-08T14:16:42;14.67;;;12.63;;
9102;SDS011;4587;51.434;6.788;2022-12-08T14:21:45;11.70;;;10.53;;
9102;SDS011;4587;51.434;6.788;2022-12-08T14:24:20;11.10;;;10.00;;
9102;SDS011;4587;51.434;6.788;2022-12-08T14:26:47;11.20;;;10.03;;
9102;SDS011;4587;51.434;6.788;2022-12-08T14:29:32;10.77;;;9.67;;
9102;SDS011;4587;51.434;6.788;2022-12-08T14:32:00;12.10;;;9.83;;
9102;SDS011;4587;51.434;6.788;2022-12-08T14:34:26;11.40;;;10.30;;
9102;SDS011;4587;51.434;6.788;2022-12-08T14:36:51;11.37;;;10.27;;
9102;SDS011;4587;51.434;6.788;2022-12-08T14:39:18;12.17;;;10.83;;
9102;SDS011;4587;51.434;6.788;2022-12-08T14:41:57;12.20;;;11.00;;
9102;SDS011;4587;51.434;6.788;2022-12-08T14:44:24;13.37;;;11.97;;
9102;SDS011;4587;51.434;6.788;2022-12-08T14:47:06;12.70;;;11.40;;
9102;SDS011;4587;51.434;6.788;2022-12-08T14:49:34;13.57;;;12.27;;
9102;SDS011;4587;51.434;6.788;2022-12-08T14:52:01;15.80;;;12.03;;
9102;SDS011;4587;51.434;6.788;2022-12-08T14:54:28;13.50;;;12.10;;
9102;SDS011;4587;51.434;6.788;2022-12-08T14:56:54;16.40;;;13.90;;
9102;SDS011;4587;51.434;6.788;2022-12-08T14:59:24;14.33;;;12.83;;
9102;SDS011;4587;51.434;6.788;2022-12-08T15:04:59;16.10;;;14.40;;
9102;SDS011;4587;51.434;6.788;2022-12-08T15:07:31;16.60;;;14.70;;
9102;SDS011;4587;51.434;6.788;2022-12-08T15:12:40;17.37;;;15.57;;
9102;SDS011;4587;51.434;6.788;2022-12-08T15:15:43;17.30;;;15.50;;
9102;SDS011;4587;51.434;6.788;2022-12-08T15:18:33;16.50;;;14.77;;
9102;SDS011;4587;51.434;6.788;2022-12-08T15:21:07;18.27;;;16.00;;
9102;SDS011;4587;51.434;6.788;2022-12-08T15:23:40;17.87;;;16.07;;
9102;SDS011;4587;51.434;6.788;2022-12-08T15:26:10;18.20;;;16.17;;
9102;SDS011;4587;51.434;6.788;2022-12-08T15:28:47;18.83;;;16.93;;
9102;SDS011;4587;51.434;6.788;2022-12-08T15:31:12;19.33;;;17.37;;
9102;SDS011;4587;51.434;6.788;2022-12-08T15:33:39;17.57;;;15.73;;
9102;SDS011;4587;51.434;6.788;2022-12-08T15:36:05;16.83;;;15.13;;
9102;SDS011;4587;51.434;6.788;2022-12-08T15:38:30;20.43;;;16.90;;
9102;SDS011;4587;51.434;6.788;2022-12-08T15:40:56;17.13;;;15.43;;
9102;SDS011;4587;51.434;6.788;2022-12-08T15:43:25;18.70;;;16.77;;
9102;SDS011;4587;51.434;6.788;2022-12-08T15:45:51;19.47;;;17.47;;
9102;SDS011;4587;51.434;6.788;2022-12-08T15:48:19;19.03;;;17.03;;
9102;SDS011;4587;51.434;6.788;2022-12-08T15:50:46;19.30;;;17.37;;
9102;SDS011;4587;51.434;6.788;2022-12-08T15:53:12;19.60;;;17.60;;
9102;SDS011;4587;51.434;6.788;2022-12-08T15:55:38;20.03;;;17.93;;
9102;SDS011;4587;51.434;6.788;2022-12-08T15:58:04;21.60;;;18.00;;
9102;SDS011;4587;51.434;6.788;2022-12-08T16:00:32;20.57;;;18.37;;
9102;SDS011;4587;51.434;6.788;2022-12-08T16:03:00;19.80;;;17.70;;
9102;SDS011;4587;51.434;6.788;2022-12-08T16:05:28;20.03;;;17.93;;
9102;SDS011;4587;51.434;6.788;2022-12-08T16:07:54;21.47;;;17.13;;
9102;SDS011;4587;51.434;6.788;2022-12-08T16:10:22;19.40;;;17.27;;
9102;SDS011;4587;51.434;6.788;2022-12-08T16:12:49;20.27;;;17.97;;
9102;SDS011;4587;51.434;6.788;2022-12-08T16:15:34;20.60;;;17.00;;
9102;SDS011;4587;51.434;6.788;2022-12-08T16:18:05;20.17;;;17.43;;
9102;SDS011;4587;51.434;6.788;2022-12-08T16:20:30;18.43;;;16.43;;
9102;SDS011;4587;51.434;6.788;2022-12-08T16:22:56;20.73;;;16.47;;
9102;SDS011;4587;51.434;6.788;2022-12-08T16:25:22;18.90;;;16.17;;
9102;SDS011;4587;51.434;6.788;2022-12-08T16:27:50;22.90;;;17.67;;
9102;SDS011;4587;51.434;6.788;2022-12-08T16:30:20;18.33;;;16.33;;
9102;SDS011;4587;51.434;6.788;2022-12-08T16:32:45;20.00;;;17.37;;
9102;SDS011;4587;51.434;6.788;2022-12-08T16:35:11;20.23;;;16.40;;
9102;SDS011;4587;51.434;6.788;2022-12-08T16:37:38;19.77;;;16.10;;
9102;SDS011;4587;51.434;6.788;2022-12-08T16:40:04;19.57;;;16.17;;